Pickle Lake, Ontario

Past 24 Hour Conditions

This table is a summary of hourly weather conditions for the past 24 hours. This summary includes the following parameters: temperature, humidity, dew point, wind speed and direction, air pressure, visibility and/or wind chill and humidex.
Date / Time
(EST)
Conditions Temp (°F) Humidity (%) Dew Point (°F) Wind (mph) Pressure (inches) Visibility (miles)
28 July 2014
16:00 N/A 63 75 55 SW 3 30.0 N/A
15:00 N/A 73   44 50 NW 6 30.0 N/A
14:00 N/A 71 47 50 NW 7 gust 17 30.1 N/A
13:00 N/A 67 62 53 NW 7 30.1 N/A
12:00 N/A 66 61 52 NNW 7 30.1 N/A
11:00 N/A 67 60 53 N 7 30.1 N/A
10:00 N/A 62 75 54 NW 6 30.1 N/A
9:00 N/A 60 81 54 NW 7 30.1 N/A
8:00 N/A 58   86 54 NW 5 30.1 N/A
7:00 N/A 59 78 52 NW 8 30.1 N/A
6:00 N/A 59 74 51 NW 6 30.1 N/A
5:00 N/A 59 73 50 WNW 5 30.1 N/A
4:00 N/A 58   72 49 W 5 30.1 N/A
3:00 N/A 59 74 51 calm 30.1 N/A
2:00 N/A 60 68 49 WNW 6 30.1 N/A
1:00 N/A 60 68 49 WNW 4 30.1 N/A
00:00 N/A 61 64 49 NW 6 30.1 N/A
27 July 2014
23:00 N/A 62 62 49 NW 6 30.1 N/A
22:00 N/A 63 59 48 NW 3 30.1 N/A
21:00 N/A 64 55 48 NW 2 30.1 N/A
20:00 N/A 66 47 46 NNW 6 30.1 N/A
19:00 N/A 67 44 45 N 4 30.1 N/A
18:00 N/A 68 45 45 N 7 30.1 N/A
17:00 N/A 68 44 46 NNW 6 30.1 N/A
16:00 N/A 68 44 45 NNE 8 30.1 N/A
N/A
Not available
 ↑ 
Highest temperature
 ↓ 
Lowest temperature

If you require additional historical weather information, please visit Climate Data Online.